sensor_id;sensor_type;location;lat;lon;timestamp;pressure;altitude;pressure_sealevel;temperature;humidity
11648;BME280;5880;52.342;9.662;2023-12-20T00:00:26;100530.97;;;11.91;67.34
11648;BME280;5880;52.342;9.662;2023-12-20T00:02:51;100538.97;;;11.92;67.19
11648;BME280;5880;52.342;9.662;2023-12-20T00:05:17;100543.63;;;11.92;67.06
11648;BME280;5880;52.342;9.662;2023-12-20T00:07:42;100539.44;;;11.89;67.13
11648;BME280;5880;52.342;9.662;2023-12-20T00:10:09;100538.97;;;11.80;66.87
11648;BME280;5880;52.342;9.662;2023-12-20T00:12:34;100545.28;;;11.81;66.96
11648;BME280;5880;52.342;9.662;2023-12-20T00:15:00;100544.56;;;11.74;66.90
11648;BME280;5880;52.342;9.662;2023-12-20T00:17:25;100551.09;;;11.73;66.93
11648;BME280;5880;52.342;9.662;2023-12-20T00:19:51;100561.50;;;11.71;67.12
11648;BME280;5880;52.342;9.662;2023-12-20T00:22:17;100556.25;;;11.69;66.77
11648;BME280;5880;52.342;9.662;2023-12-20T00:24:42;100559.72;;;11.65;66.81
11648;BME280;5880;52.342;9.662;2023-12-20T00:27:08;100554.72;;;11.61;66.92
11648;BME280;5880;52.342;9.662;2023-12-20T00:29:34;100556.03;;;11.59;67.00
11648;BME280;5880;52.342;9.662;2023-12-20T00:31:59;100575.22;;;11.59;66.79
11648;BME280;5880;52.342;9.662;2023-12-20T00:34:25;100572.94;;;11.56;66.80
11648;BME280;5880;52.342;9.662;2023-12-20T00:36:50;100571.72;;;11.52;66.69
11648;BME280;5880;52.342;9.662;2023-12-20T00:39:16;100559.84;;;11.46;66.70
11648;BME280;5880;52.342;9.662;2023-12-20T00:41:42;100565.09;;;11.48;66.61
11648;BME280;5880;52.342;9.662;2023-12-20T00:44:07;100568.88;;;11.47;66.45
11648;BME280;5880;52.342;9.662;2023-12-20T00:46:33;100571.53;;;11.41;66.56
11648;BME280;5880;52.342;9.662;2023-12-20T00:48:58;100572.34;;;11.42;66.42
11648;BME280;5880;52.342;9.662;2023-12-20T00:51:24;100573.19;;;11.43;66.56
11648;BME280;5880;52.342;9.662;2023-12-20T00:53:50;100569.00;;;11.40;66.68
11648;BME280;5880;52.342;9.662;2023-12-20T00:56:20;100572.81;;;11.39;66.39
11648;BME280;5880;52.342;9.662;2023-12-20T00:58:46;100572.22;;;11.37;66.45
11648;BME280;5880;52.342;9.662;2023-12-20T01:01:11;100567.00;;;11.35;66.43
11648;BME280;5880;52.342;9.662;2023-12-20T01:03:38;100561.78;;;11.34;66.28
11648;BME280;5880;52.342;9.662;2023-12-20T01:06:04;100562.81;;;11.33;66.14
11648;BME280;5880;52.342;9.662;2023-12-20T01:08:30;100559.53;;;11.31;66.23
11648;BME280;5880;52.342;9.662;2023-12-20T01:10:56;100558.66;;;11.30;66.47
11648;BME280;5880;52.342;9.662;2023-12-20T01:13:21;100565.22;;;11.29;66.20
11648;BME280;5880;52.342;9.662;2023-12-20T01:15:47;100556.91;;;11.24;66.37
11648;BME280;5880;52.342;9.662;2023-12-20T01:18:14;100566.75;;;11.25;66.20
11648;BME280;5880;52.342;9.662;2023-12-20T01:20:40;100560.94;;;11.22;66.33
11648;BME280;5880;52.342;9.662;2023-12-20T01:23:05;100562.59;;;11.23;66.04
11648;BME280;5880;52.342;9.662;2023-12-20T01:25:31;100563.09;;;11.19;66.33
11648;BME280;5880;52.342;9.662;2023-12-20T01:27:57;100569.63;;;11.18;66.23
11648;BME280;5880;52.342;9.662;2023-12-20T01:30:22;100560.59;;;11.18;66.55
11648;BME280;5880;52.342;9.662;2023-12-20T01:32:48;100577.22;;;11.16;66.70
11648;BME280;5880;52.342;9.662;2023-12-20T01:35:14;100573.66;;;11.16;66.75
11648;BME280;5880;52.342;9.662;2023-12-20T01:37:40;100568.44;;;11.14;66.56
11648;BME280;5880;52.342;9.662;2023-12-20T01:40:06;100584.25;;;11.12;66.80
11648;BME280;5880;52.342;9.662;2023-12-20T01:42:32;100583.66;;;11.10;66.96
11648;BME280;5880;52.342;9.662;2023-12-20T01:44:57;100588.03;;;11.11;66.83
11648;BME280;5880;52.342;9.662;2023-12-20T01:47:23;100583.88;;;11.09;66.88
11648;BME280;5880;52.342;9.662;2023-12-20T01:49:49;100582.56;;;11.11;66.85
11648;BME280;5880;52.342;9.662;2023-12-20T01:52:16;100579.00;;;11.11;66.65
11648;BME280;5880;52.342;9.662;2023-12-20T01:54:43;100584.50;;;11.11;66.98
11648;BME280;5880;52.342;9.662;2023-12-20T01:57:09;100575.69;;;11.09;66.94
11648;BME280;5880;52.342;9.662;2023-12-20T01:59:35;100584.13;;;11.07;66.49
11648;BME280;5880;52.342;9.662;2023-12-20T02:02:03;100578.91;;;11.06;66.56
11648;BME280;5880;52.342;9.662;2023-12-20T02:04:29;100577.69;;;11.02;66.75
11648;BME280;5880;52.342;9.662;2023-12-20T02:06:56;100584.00;;;11.02;66.53
11648;BME280;5880;52.342;9.662;2023-12-20T02:09:22;100582.56;;;10.99;66.47
11648;BME280;5880;52.342;9.662;2023-12-20T02:11:49;100577.09;;;10.99;66.42
11648;BME280;5880;52.342;9.662;2023-12-20T02:14:14;100578.63;;;10.95;66.20
11648;BME280;5880;52.342;9.662;2023-12-20T02:16:40;100574.72;;;10.91;65.91
11648;BME280;5880;52.342;9.662;2023-12-20T02:19:13;100558.66;;;10.83;65.91
11648;BME280;5880;52.342;9.662;2023-12-20T02:21:40;100561.38;;;10.83;66.05
11648;BME280;5880;52.342;9.662;2023-12-20T02:24:05;100541.03;;;10.79;65.74
11648;BME280;5880;52.342;9.662;2023-12-20T02:26:34;100541.19;;;10.72;66.03
11648;BME280;5880;52.342;9.662;2023-12-20T02:29:01;100544.75;;;10.73;65.80
11648;BME280;5880;52.342;9.662;2023-12-20T02:31:26;100550.91;;;10.68;65.85
11648;BME280;5880;52.342;9.662;2023-12-20T02:33:52;100548.66;;;10.65;65.95
11648;BME280;5880;52.342;9.662;2023-12-20T02:36:18;100554.34;;;10.64;66.17
11648;BME280;5880;52.342;9.662;2023-12-20T02:38:43;100550.41;;;10.60;65.78
11648;BME280;5880;52.342;9.662;2023-12-20T02:41:09;100546.25;;;10.57;65.76
11648;BME280;5880;52.342;9.662;2023-12-20T02:43:35;100542.31;;;10.53;65.58
11648;BME280;5880;52.342;9.662;2023-12-20T02:46:00;100555.16;;;10.52;65.89
11648;BME280;5880;52.342;9.662;2023-12-20T02:48:26;100556.31;;;10.45;65.81
11648;BME280;5880;52.342;9.662;2023-12-20T02:50:52;100550.25;;;10.43;66.14
11648;BME280;5880;52.342;9.662;2023-12-20T02:53:18;100547.28;;;10.44;66.23
11648;BME280;5880;52.342;9.662;2023-12-20T02:55:43;100552.16;;;10.42;66.03
11648;BME280;5880;52.342;9.662;2023-12-20T02:58:09;100540.00;;;10.38;65.70
11648;BME280;5880;52.342;9.662;2023-12-20T03:00:34;100544.41;;;10.39;65.94
11648;BME280;5880;52.342;9.662;2023-12-20T03:03:00;100546.09;;;10.40;65.96
11648;BME280;5880;52.342;9.662;2023-12-20T03:05:25;100540.84;;;10.39;66.00
11648;BME280;5880;52.342;9.662;2023-12-20T03:07:52;100540.00;;;10.38;65.84
11648;BME280;5880;52.342;9.662;2023-12-20T03:10:18;100522.41;;;10.34;65.78
11648;BME280;5880;52.342;9.662;2023-12-20T03:12:44;100520.28;;;10.36;65.81
11648;BME280;5880;52.342;9.662;2023-12-20T03:15:10;100522.41;;;10.34;66.02
11648;BME280;5880;52.342;9.662;2023-12-20T03:17:36;100529.19;;;10.31;66.04
11648;BME280;5880;52.342;9.662;2023-12-20T03:20:02;100517.66;;;10.29;66.01
11648;BME280;5880;52.342;9.662;2023-12-20T03:22:27;100522.47;;;10.27;66.26
11648;BME280;5880;52.342;9.662;2023-12-20T03:24:53;100518.09;;;10.26;66.08
11648;BME280;5880;52.342;9.662;2023-12-20T03:27:19;100511.81;;;10.26;66.06
11648;BME280;5880;52.342;9.662;2023-12-20T03:29:45;100501.72;;;10.26;66.31
11648;BME280;5880;52.342;9.662;2023-12-20T03:32:10;100495.03;;;10.22;65.94
11648;BME280;5880;52.342;9.662;2023-12-20T03:34:36;100490.41;;;10.23;65.78
11648;BME280;5880;52.342;9.662;2023-12-20T03:37:02;100483.88;;;10.24;65.68
11648;BME280;5880;52.342;9.662;2023-12-20T03:39:27;100479.72;;;10.21;65.54
11648;BME280;5880;52.342;9.662;2023-12-20T03:41:53;100486.84;;;10.22;65.81
11648;BME280;5880;52.342;9.662;2023-12-20T03:44:18;100488.53;;;10.23;65.49
11648;BME280;5880;52.342;9.662;2023-12-20T03:46:44;100490.41;;;10.23;65.76
11648;BME280;5880;52.342;9.662;2023-12-20T03:49:11;100484.94;;;10.23;65.91
11648;BME280;5880;52.342;9.662;2023-12-20T03:51:36;100486.84;;;10.22;65.88
11648;BME280;5880;52.342;9.662;2023-12-20T03:54:02;100488.53;;;10.23;66.12
11648;BME280;5880;52.342;9.662;2023-12-20T03:56:28;100482.81;;;10.25;66.27
11648;BME280;5880;52.342;9.662;2023-12-20T03:58:54;100486.63;;;10.24;66.03
11648;BME280;5880;52.342;9.662;2023-12-20T04:01:19;100478.44;;;10.24;66.00
11648;BME280;5880;52.342;9.662;2023-12-20T04:03:45;100480.56;;;10.22;66.18
11648;BME280;5880;52.342;9.662;2023-12-20T04:06:19;100481.38;;;10.22;65.94
11648;BME280;5880;52.342;9.662;2023-12-20T04:08:45;100478.03;;;10.20;66.45
11648;BME280;5880;52.342;9.662;2023-12-20T04:11:11;100477.22;;;10.20;66.41
11648;BME280;5880;52.342;9.662;2023-12-20T04:13:36;100483.50;;;10.20;66.71
11648;BME280;5880;52.342;9.662;2023-12-20T04:16:02;100480.44;;;10.17;66.52
11648;BME280;5880;52.342;9.662;2023-12-20T04:18:28;100479.47;;;10.23;66.88
11648;BME280;5880;52.342;9.662;2023-12-20T04:20:54;100479.94;;;10.20;67.02
11648;BME280;5880;52.342;9.662;2023-12-20T04:23:19;100475.44;;;10.25;67.00
11648;BME280;5880;52.342;9.662;2023-12-20T04:25:45;100476.91;;;10.28;67.28
11648;BME280;5880;52.342;9.662;2023-12-20T04:28:11;100470.56;;;10.27;67.36
11648;BME280;5880;52.342;9.662;2023-12-20T04:30:36;100480.22;;;10.30;67.23
11648;BME280;5880;52.342;9.662;2023-12-20T04:33:02;100462.56;;;10.32;66.98
11648;BME280;5880;52.342;9.662;2023-12-20T04:35:27;100458.75;;;10.33;67.19
11648;BME280;5880;52.342;9.662;2023-12-20T04:37:53;100458.28;;;10.37;66.85
11648;BME280;5880;52.342;9.662;2023-12-20T04:40:19;100462.69;;;10.38;67.09
11648;BME280;5880;52.342;9.662;2023-12-20T04:42:45;100453.41;;;10.39;66.84
11648;BME280;5880;52.342;9.662;2023-12-20T04:45:11;100447.72;;;10.40;66.69
11648;BME280;5880;52.342;9.662;2023-12-20T04:47:39;100454.63;;;10.43;66.70
11648;BME280;5880;52.342;9.662;2023-12-20T04:50:05;100445.34;;;10.44;66.68
11648;BME280;5880;52.342;9.662;2023-12-20T04:52:31;100449.38;;;10.41;66.90
11648;BME280;5880;52.342;9.662;2023-12-20T04:54:56;100447.47;;;10.42;66.60
11648;BME280;5880;52.342;9.662;2023-12-20T04:57:22;100457.94;;;10.45;66.92
11648;BME280;5880;52.342;9.662;2023-12-20T04:59:48;100464.25;;;10.45;67.12
11648;BME280;5880;52.342;9.662;2023-12-20T05:02:13;100457.69;;;10.46;67.02
11648;BME280;5880;52.342;9.662;2023-12-20T05:04:39;100460.19;;;10.48;67.19
11648;BME280;5880;52.342;9.662;2023-12-20T05:07:05;100454.50;;;10.49;67.14
11648;BME280;5880;52.342;9.662;2023-12-20T05:09:30;100438.72;;;10.51;67.13
11648;BME280;5880;52.342;9.662;2023-12-20T05:11:56;100440.38;;;10.52;67.22
11648;BME280;5880;52.342;9.662;2023-12-20T05:14:22;100443.69;;;10.54;67.23
11648;BME280;5880;52.342;9.662;2023-12-20T05:16:48;100444.53;;;10.55;67.17
11648;BME280;5880;52.342;9.662;2023-12-20T05:19:13;100447.84;;;10.57;67.16
11648;BME280;5880;52.342;9.662;2023-12-20T05:21:39;100453.09;;;10.59;67.13
11648;BME280;5880;52.342;9.662;2023-12-20T05:24:05;100444.75;;;10.53;67.14
11648;BME280;5880;52.342;9.662;2023-12-20T05:26:31;100453.69;;;10.61;67.33
11648;BME280;5880;52.342;9.662;2023-12-20T05:28:56;100446.31;;;10.61;67.25
11648;BME280;5880;52.342;9.662;2023-12-20T05:31:22;100439.56;;;10.64;67.15
11648;BME280;5880;52.342;9.662;2023-12-20T05:33:48;100453.00;;;10.65;66.98
11648;BME280;5880;52.342;9.662;2023-12-20T05:36:13;100439.06;;;10.67;67.17
11648;BME280;5880;52.342;9.662;2023-12-20T05:38:40;100439.31;;;10.65;66.93
11648;BME280;5880;52.342;9.662;2023-12-20T05:41:06;100451.69;;;10.68;66.92
11648;BME280;5880;52.342;9.662;2023-12-20T05:43:31;100441.81;;;10.67;66.78
11648;BME280;5880;52.342;9.662;2023-12-20T05:45:58;100435.50;;;10.66;66.66
11648;BME280;5880;52.342;9.662;2023-12-20T05:48:23;100441.81;;;10.67;66.77
11648;BME280;5880;52.342;9.662;2023-12-20T05:50:49;100441.81;;;10.67;66.87
11648;BME280;5880;52.342;9.662;2023-12-20T05:53:15;100459.03;;;10.67;67.08
11648;BME280;5880;52.342;9.662;2023-12-20T05:55:40;100448.09;;;10.67;66.94
11648;BME280;5880;52.342;9.662;2023-12-20T05:58:06;100442.88;;;10.66;67.09
11648;BME280;5880;52.342;9.662;2023-12-20T06:00:31;100444.19;;;10.63;66.98
11648;BME280;5880;52.342;9.662;2023-12-20T06:02:57;100460.09;;;10.66;66.86
11648;BME280;5880;52.342;9.662;2023-12-20T06:05:23;100454.53;;;10.61;66.91
11648;BME280;5880;52.342;9.662;2023-12-20T06:07:48;100452.72;;;10.67;66.89
11648;BME280;5880;52.342;9.662;2023-12-20T06:10:16;100440.16;;;10.66;66.77
11648;BME280;5880;52.342;9.662;2023-12-20T06:12:42;100440.38;;;10.64;66.69
11648;BME280;5880;52.342;9.662;2023-12-20T06:15:08;100433.50;;;10.62;66.45
11648;BME280;5880;52.342;9.662;2023-12-20T06:17:34;100442.75;;;10.61;66.12
11648;BME280;5880;52.342;9.662;2023-12-20T06:20:01;100439.44;;;10.59;66.08
11648;BME280;5880;52.342;9.662;2023-12-20T06:22:26;100437.41;;;10.54;66.43
11648;BME280;5880;52.342;9.662;2023-12-20T06:24:52;100452.13;;;10.53;66.47
11648;BME280;5880;52.342;9.662;2023-12-20T06:27:17;100450.94;;;10.49;66.73
11648;BME280;5880;52.342;9.662;2023-12-20T06:29:43;100453.22;;;10.52;66.84
11648;BME280;5880;52.342;9.662;2023-12-20T06:32:10;100444.19;;;10.51;66.74
11648;BME280;5880;52.342;9.662;2023-12-20T06:34:36;100434.06;;;10.52;66.82
11648;BME280;5880;52.342;9.662;2023-12-20T06:37:01;100443.69;;;10.54;66.83
11648;BME280;5880;52.342;9.662;2023-12-20T06:39:27;100446.44;;;10.54;66.87
11648;BME280;5880;52.342;9.662;2023-12-20T06:41:53;100439.66;;;10.57;67.24
11648;BME280;5880;52.342;9.662;2023-12-20T06:44:19;100437.53;;;10.59;67.03
11648;BME280;5880;52.342;9.662;2023-12-20T06:46:44;100429.31;;;10.59;66.96
11648;BME280;5880;52.342;9.662;2023-12-20T06:49:10;100444.63;;;10.60;66.88
11648;BME280;5880;52.342;9.662;2023-12-20T06:51:36;100434.19;;;10.57;66.25
11648;BME280;5880;52.342;9.662;2023-12-20T06:54:01;100438.22;;;10.54;66.38
11648;BME280;5880;52.342;9.662;2023-12-20T06:56:28;100440.38;;;10.52;66.00
11648;BME280;5880;52.342;9.662;2023-12-20T06:58:53;100444.63;;;10.48;66.13
11648;BME280;5880;52.342;9.662;2023-12-20T07:01:19;100437.41;;;10.42;66.29
11648;BME280;5880;52.342;9.662;2023-12-20T07:03:45;100426.00;;;10.45;66.11
11648;BME280;5880;52.342;9.662;2023-12-20T07:06:10;100431.94;;;10.42;66.46
11648;BME280;5880;52.342;9.662;2023-12-20T07:08:36;100433.59;;;10.43;66.49
11648;BME280;5880;52.342;9.662;2023-12-20T07:11:02;100420.75;;;10.44;66.72
11648;BME280;5880;52.342;9.662;2023-12-20T07:13:27;100411.72;;;10.43;66.79
11648;BME280;5880;52.342;9.662;2023-12-20T07:15:53;100414.47;;;10.43;66.69
11648;BME280;5880;52.342;9.662;2023-12-20T07:18:19;100401.63;;;10.44;66.75
11648;BME280;5880;52.342;9.662;2023-12-20T07:20:44;100406.25;;;10.43;66.53
11648;BME280;5880;52.342;9.662;2023-12-20T07:23:10;100424.56;;;10.43;66.27
11648;BME280;5880;52.342;9.662;2023-12-20T07:25:36;100419.59;;;10.40;66.22
11648;BME280;5880;52.342;9.662;2023-12-20T07:28:02;100425.63;;;10.42;66.00
11648;BME280;5880;52.342;9.662;2023-12-20T07:30:28;100429.66;;;10.39;66.48
11648;BME280;5880;52.342;9.662;2023-12-20T07:32:53;100416.59;;;10.41;66.67
11648;BME280;5880;52.342;9.662;2023-12-20T07:35:19;100426.22;;;10.44;66.80
11648;BME280;5880;52.342;9.662;2023-12-20T07:37:45;100426.00;;;10.45;66.54
11648;BME280;5880;52.342;9.662;2023-12-20T07:40:11;100437.28;;;10.49;66.77
11648;BME280;5880;52.342;9.662;2023-12-20T07:42:36;100434.31;;;10.50;66.65
11648;BME280;5880;52.342;9.662;2023-12-20T07:45:03;100438.47;;;10.53;66.56
11648;BME280;5880;52.342;9.662;2023-12-20T07:47:29;100426.94;;;10.51;66.48
11648;BME280;5880;52.342;9.662;2023-12-20T07:49:54;100433.00;;;10.53;66.36
11648;BME280;5880;52.342;9.662;2023-12-20T07:52:20;100426.72;;;10.52;66.27
11648;BME280;5880;52.342;9.662;2023-12-20T07:54:49;100426.47;;;10.54;66.33
11648;BME280;5880;52.342;9.662;2023-12-20T07:57:14;100423.97;;;10.52;66.28
11648;BME280;5880;52.342;9.662;2023-12-20T07:59:40;100432.78;;;10.54;66.37
11648;BME280;5880;52.342;9.662;2023-12-20T08:02:06;100424.56;;;10.54;66.08
11648;BME280;5880;52.342;9.662;2023-12-20T08:04:32;100425.63;;;10.53;66.26
11648;BME280;5880;52.342;9.662;2023-12-20T08:06:58;100423.75;;;10.54;66.33
11648;BME280;5880;52.342;9.662;2023-12-20T08:09:23;100430.03;;;10.54;66.46
11648;BME280;5880;52.342;9.662;2023-12-20T08:11:49;100421.84;;;10.54;66.48
11648;BME280;5880;52.342;9.662;2023-12-20T08:14:15;100423.75;;;10.54;66.66
11648;BME280;5880;52.342;9.662;2023-12-20T08:16:41;100421.63;;;10.56;66.84
11648;BME280;5880;52.342;9.662;2023-12-20T08:19:07;100418.63;;;10.57;66.72
11648;BME280;5880;52.342;9.662;2023-12-20T08:21:33;100425.28;;;10.62;66.43
11648;BME280;5880;52.342;9.662;2023-12-20T08:23:59;100421.47;;;10.63;66.46
11648;BME280;5880;52.342;9.662;2023-12-20T08:26:26;100414.72;;;10.65;66.76
11648;BME280;5880;52.342;9.662;2023-12-20T08:28:52;100406.53;;;10.65;66.58
11648;BME280;5880;52.342;9.662;2023-12-20T08:31:18;100404.25;;;10.62;66.57
11648;BME280;5880;52.342;9.662;2023-12-20T08:33:46;100407.34;;;10.66;67.00
11648;BME280;5880;52.342;9.662;2023-12-20T08:36:12;100408.78;;;10.68;66.93
11648;BME280;5880;52.342;9.662;2023-12-20T08:38:38;100394.50;;;10.66;66.72
11648;BME280;5880;52.342;9.662;2023-12-20T08:41:04;100395.69;;;10.70;66.69
11648;BME280;5880;52.342;9.662;2023-12-20T08:43:34;100391.88;;;10.71;66.57
11648;BME280;5880;52.342;9.662;2023-12-20T08:46:01;100382.84;;;10.71;66.76
11648;BME280;5880;52.342;9.662;2023-12-20T08:48:28;100395.00;;;10.75;66.78
11648;BME280;5880;52.342;9.662;2023-12-20T08:50:54;100381.06;;;10.76;67.02
11648;BME280;5880;52.342;9.662;2023-12-20T08:53:20;100381.31;;;10.75;66.99
11648;BME280;5880;52.342;9.662;2023-12-20T08:55:46;100380.00;;;10.77;66.73
11648;BME280;5880;52.342;9.662;2023-12-20T08:58:12;100380.47;;;10.74;66.85
11648;BME280;5880;52.342;9.662;2023-12-20T09:00:37;100386.91;;;10.80;66.62
11648;BME280;5880;52.342;9.662;2023-12-20T09:03:04;100376.78;;;10.81;66.83
11648;BME280;5880;52.342;9.662;2023-12-20T09:05:30;100376.56;;;10.82;66.52
11648;BME280;5880;52.342;9.662;2023-12-20T09:07:56;100365.63;;;10.82;66.95
11648;BME280;5880;52.342;9.662;2023-12-20T09:10:22;100353.84;;;10.82;66.81
11648;BME280;5880;52.342;9.662;2023-12-20T09:12:52;100362.63;;;10.84;66.80
11648;BME280;5880;52.342;9.662;2023-12-20T09:15:23;100346.72;;;10.81;67.31
11648;BME280;5880;52.342;9.662;2023-12-20T09:17:49;100332.81;;;10.82;66.91
11648;BME280;5880;52.342;9.662;2023-12-20T09:20:15;100332.56;;;10.84;67.27
11648;BME280;5880;52.342;9.662;2023-12-20T09:22:41;100333.75;;;10.88;67.44
11648;BME280;5880;52.342;9.662;2023-12-20T09:25:09;100337.66;;;10.92;67.33
11648;BME280;5880;52.342;9.662;2023-12-20T09:27:35;100339.91;;;10.95;67.27
11648;BME280;5880;52.342;9.662;2023-12-20T09:30:01;100330.63;;;10.96;67.32
11648;BME280;5880;52.342;9.662;2023-12-20T09:32:26;100327.06;;;10.95;67.11
11648;BME280;5880;52.342;9.662;2023-12-20T09:34:52;100328.84;;;11.02;67.29
11648;BME280;5880;52.342;9.662;2023-12-20T09:37:18;100320.28;;;10.98;67.43
11648;BME280;5880;52.342;9.662;2023-12-20T09:39:43;100325.13;;;11.08;67.56
11648;BME280;5880;52.342;9.662;2023-12-20T09:42:15;100322.13;;;11.09;67.53
11648;BME280;5880;52.342;9.662;2023-12-20T09:44:42;100332.03;;;11.10;67.41
11648;BME280;5880;52.342;9.662;2023-12-20T09:47:10;100338.91;;;11.13;67.31
11648;BME280;5880;52.342;9.662;2023-12-20T09:49:37;100323.81;;;11.10;67.41
11648;BME280;5880;52.342;9.662;2023-12-20T09:52:06;100318.44;;;11.15;67.35
11648;BME280;5880;52.342;9.662;2023-12-20T09:54:33;100330.78;;;11.18;67.35
11648;BME280;5880;52.342;9.662;2023-12-20T09:56:59;100330.78;;;11.18;67.54
11648;BME280;5880;52.342;9.662;2023-12-20T09:59:24;100322.34;;;11.19;67.63
11648;BME280;5880;52.342;9.662;2023-12-20T10:01:51;100310.69;;;11.24;67.26
11648;BME280;5880;52.342;9.662;2023-12-20T10:04:20;100306.53;;;11.22;67.38
11648;BME280;5880;52.342;9.662;2023-12-20T10:06:46;100298.78;;;11.18;67.21
11648;BME280;5880;52.342;9.662;2023-12-20T10:09:13;100307.69;;;11.26;67.22
11648;BME280;5880;52.342;9.662;2023-12-20T10:11:39;100306.03;;;11.25;67.67
11648;BME280;5880;52.342;9.662;2023-12-20T10:14:06;100312.69;;;11.29;67.57
11648;BME280;5880;52.342;9.662;2023-12-20T10:16:33;100304.72;;;11.27;67.34
11648;BME280;5880;52.342;9.662;2023-12-20T10:19:00;100308.63;;;11.31;67.48
11648;BME280;5880;52.342;9.662;2023-12-20T10:21:30;100302.06;;;11.32;67.37
11648;BME280;5880;52.342;9.662;2023-12-20T10:23:57;100293.88;;;11.32;67.26
11648;BME280;5880;52.342;9.662;2023-12-20T10:26:26;100291.94;;;11.33;67.07
11648;BME280;5880;52.342;9.662;2023-12-20T10:28:59;100304.81;;;11.32;67.32
11648;BME280;5880;52.342;9.662;2023-12-20T10:31:31;100284.59;;;11.33;66.86
11648;BME280;5880;52.342;9.662;2023-12-20T10:34:02;100289.81;;;11.35;67.05
11648;BME280;5880;52.342;9.662;2023-12-20T10:36:32;100302.16;;;11.37;67.16
11648;BME280;5880;52.342;9.662;2023-12-20T10:38:59;100292.06;;;11.38;67.04
11648;BME280;5880;52.342;9.662;2023-12-20T10:41:30;100289.66;;;11.41;67.13
11648;BME280;5880;52.342;9.662;2023-12-20T10:44:03;100283.13;;;11.43;67.08
11648;BME280;5880;52.342;9.662;2023-12-20T10:46:30;100272.72;;;11.45;67.46
11648;BME280;5880;52.342;9.662;2023-12-20T10:48:58;100299.78;;;11.41;67.49
11648;BME280;5880;52.342;9.662;2023-12-20T10:51:25;100301.78;;;11.46;67.30
11648;BME280;5880;52.342;9.662;2023-12-20T10:53:56;100309.16;;;11.45;66.84
11648;BME280;5880;52.342;9.662;2023-12-20T10:56:22;100295.72;;;11.44;66.89
11648;BME280;5880;52.342;9.662;2023-12-20T10:58:51;100287.50;;;11.44;66.90
11648;BME280;5880;52.342;9.662;2023-12-20T11:01:18;100294.63;;;11.45;66.88
11648;BME280;5880;52.342;9.662;2023-12-20T11:03:51;100290.00;;;11.45;67.14
11648;BME280;5880;52.342;9.662;2023-12-20T11:06:41;100290.59;;;11.47;67.14
11648;BME280;5880;52.342;9.662;2023-12-20T11:09:22;100282.94;;;11.49;67.31
11648;BME280;5880;52.342;9.662;2023-12-20T11:12:01;100290.91;;;11.51;67.56
11648;BME280;5880;52.342;9.662;2023-12-20T11:14:46;100282.78;;;11.56;67.67
11648;BME280;5880;52.342;9.662;2023-12-20T11:17:13;100263.41;;;11.57;67.58
11648;BME280;5880;52.342;9.662;2023-12-20T11:22:20;100264.31;;;11.63;67.49
11648;BME280;5880;52.342;9.662;2023-12-20T11:24:48;100260.22;;;11.66;67.13
11648;BME280;5880;52.342;9.662;2023-12-20T11:27:14;100262.97;;;11.66;67.13
11648;BME280;5880;52.342;9.662;2023-12-20T11:29:40;100261.91;;;11.67;67.17
11648;BME280;5880;52.342;9.662;2023-12-20T11:35:16;100266.81;;;11.65;66.76
11648;BME280;5880;52.342;9.662;2023-12-20T11:37:42;100264.81;;;11.60;66.82
11648;BME280;5880;52.342;9.662;2023-12-20T11:40:14;100259.56;;;11.58;66.51
11648;BME280;5880;52.342;9.662;2023-12-20T11:42:41;100263.03;;;11.54;66.39
11648;BME280;5880;52.342;9.662;2023-12-20T11:45:13;100286.19;;;11.46;66.43
11648;BME280;5880;52.342;9.662;2023-12-20T11:47:43;100335.94;;;11.43;66.35
11648;BME280;5880;52.342;9.662;2023-12-20T11:50:10;100332.53;;;11.36;65.97
11648;BME280;5880;52.342;9.662;2023-12-20T11:52:36;100335.63;;;11.28;65.14
11648;BME280;5880;52.342;9.662;2023-12-20T11:55:02;100312.16;;;11.15;65.09
11648;BME280;5880;52.342;9.662;2023-12-20T11:57:30;100318.56;;;11.09;64.86
11648;BME280;5880;52.342;9.662;2023-12-20T11:59:55;100309.69;;;11.02;64.86
11648;BME280;5880;52.342;9.662;2023-12-20T12:02:22;100305.66;;;10.92;64.68
11648;BME280;5880;52.342;9.662;2023-12-20T12:04:49;100311.53;;;10.84;64.47
11648;BME280;5880;52.342;9.662;2023-12-20T12:07:16;100295.50;;;10.76;64.81
11648;BME280;5880;52.342;9.662;2023-12-20T12:09:43;100296.44;;;10.70;64.76
11648;BME280;5880;52.342;9.662;2023-12-20T12:12:11;100282.69;;;10.65;64.90
11648;BME280;5880;52.342;9.662;2023-12-20T12:14:38;100278.19;;;10.59;64.53
11648;BME280;5880;52.342;9.662;2023-12-20T12:17:04;100269.03;;;10.53;64.86
11648;BME280;5880;52.342;9.662;2023-12-20T12:19:30;100278.31;;;10.52;65.22
11648;BME280;5880;52.342;9.662;2023-12-20T12:22:14;100266.78;;;10.50;65.17
11648;BME280;5880;52.342;9.662;2023-12-20T12:24:44;100275.47;;;10.47;65.54
11648;BME280;5880;52.342;9.662;2023-12-20T12:27:11;100271.06;;;10.46;65.50
11648;BME280;5880;52.342;9.662;2023-12-20T12:29:37;100288.28;;;10.46;65.60
11648;BME280;5880;52.342;9.662;2023-12-20T12:32:09;100280.09;;;10.46;65.67
11648;BME280;5880;52.342;9.662;2023-12-20T12:34:36;100277.63;;;10.45;65.55
11648;BME280;5880;52.342;9.662;2023-12-20T12:37:03;100279.28;;;10.46;65.30
11648;BME280;5880;52.342;9.662;2023-12-20T12:39:30;100270.47;;;10.44;65.41
11648;BME280;5880;52.342;9.662;2023-12-20T12:41:56;100275.59;;;10.40;65.39
11648;BME280;5880;52.342;9.662;2023-12-20T12:44:22;100270.38;;;10.39;65.36
11648;BME280;5880;52.342;9.662;2023-12-20T12:46:52;100266.22;;;10.36;64.99
11648;BME280;5880;52.342;9.662;2023-12-20T12:49:20;100270.88;;;10.35;65.11
11648;BME280;5880;52.342;9.662;2023-12-20T12:51:47;100265.63;;;10.34;65.52
11648;BME280;5880;52.342;9.662;2023-12-20T12:54:12;100260.97;;;10.34;65.19
11648;BME280;5880;52.342;9.662;2023-12-20T12:56:39;100262.31;;;10.32;65.46
11648;BME280;5880;52.342;9.662;2023-12-20T12:59:05;100252.44;;;10.31;65.49
11648;BME280;5880;52.342;9.662;2023-12-20T13:01:31;100253.78;;;10.28;65.22